sensor_id;sensor_type;location;lat;lon;timestamp;pressure;altitude;pressure_sealevel;temperature;humidity
7918;BME280;4004;42.624;23.386;2023-04-12T00:00:54;93245.84;;;8.75;90.90
7918;BME280;4004;42.624;23.386;2023-04-12T00:03:20;93236.16;;;8.66;91.44
7918;BME280;4004;42.624;23.386;2023-04-12T00:05:47;93232.66;;;8.62;91.95
7918;BME280;4004;42.624;23.386;2023-04-12T00:08:18;93236.91;;;8.67;91.77
7918;BME280;4004;42.624;23.386;2023-04-12T00:10:50;93218.47;;;8.58;92.17
7918;BME280;4004;42.624;23.386;2023-04-12T00:13:17;93204.88;;;8.74;91.23
7918;BME280;4004;42.624;23.386;2023-04-12T00:15:44;93230.44;;;8.68;91.71
7918;BME280;4004;42.624;23.386;2023-04-12T00:18:11;93221.72;;;8.75;91.37
7918;BME280;4004;42.624;23.386;2023-04-12T00:20:37;93211.75;;;8.71;91.27
7918;BME280;4004;42.624;23.386;2023-04-12T00:23:04;93210.13;;;8.67;91.81
7918;BME280;4004;42.624;23.386;2023-04-12T00:25:31;93212.44;;;8.68;91.72
7918;BME280;4004;42.624;23.386;2023-04-12T00:27:59;93219.38;;;8.73;91.80
7918;BME280;4004;42.624;23.386;2023-04-12T00:30:26;93206.72;;;8.70;91.84
7918;BME280;4004;42.624;23.386;2023-04-12T00:32:53;93201.41;;;8.74;91.89
7918;BME280;4004;42.624;23.386;2023-04-12T00:35:19;93201.41;;;8.74;91.61
7918;BME280;4004;42.624;23.386;2023-04-12T00:37:46;93201.50;;;8.81;91.17
7918;BME280;4004;42.624;23.386;2023-04-12T00:40:13;93203.38;;;8.80;90.67
7918;BME280;4004;42.624;23.386;2023-04-12T00:42:40;93207.63;;;8.81;90.75
7918;BME280;4004;42.624;23.386;2023-04-12T00:45:09;93206.03;;;8.77;91.20
7918;BME280;4004;42.624;23.386;2023-04-12T00:47:36;93202.63;;;8.80;91.76
7918;BME280;4004;42.624;23.386;2023-04-12T00:50:04;93204.47;;;8.76;91.44
7918;BME280;4004;42.624;23.386;2023-04-12T00:52:31;93209.13;;;8.79;91.01
7918;BME280;4004;42.624;23.386;2023-04-12T00:55:00;93208.72;;;8.77;91.32
7918;BME280;4004;42.624;23.386;2023-04-12T00:57:31;93196.03;;;8.74;91.25
7918;BME280;4004;42.624;23.386;2023-04-12T00:59:59;93195.66;;;8.71;91.61
7918;BME280;4004;42.624;23.386;2023-04-12T01:02:28;93194.84;;;8.67;92.03
7918;BME280;4004;42.624;23.386;2023-04-12T01:04:55;93187.50;;;8.64;91.98
7918;BME280;4004;42.624;23.386;2023-04-12T01:07:33;93196.44;;;8.72;91.45
7918;BME280;4004;42.624;23.386;2023-04-12T01:10:07;93185.66;;;8.68;91.86
7918;BME280;4004;42.624;23.386;2023-04-12T01:12:39;93192.59;;;8.73;92.21
7918;BME280;4004;42.624;23.386;2023-04-12T01:15:12;93182.50;;;8.59;92.16
7918;BME280;4004;42.624;23.386;2023-04-12T01:17:46;93189.78;;;8.62;92.42
7918;BME280;4004;42.624;23.386;2023-04-12T01:20:14;93183.63;;;8.58;92.93
7918;BME280;4004;42.624;23.386;2023-04-12T01:23:03;93178.28;;;8.58;92.83
7918;BME280;4004;42.624;23.386;2023-04-12T01:25:55;93183.94;;;8.53;92.94
7918;BME280;4004;42.624;23.386;2023-04-12T01:28:27;93177.81;;;8.53;93.02
7918;BME280;4004;42.624;23.386;2023-04-12T01:30:55;93182.03;;;8.54;93.42
7918;BME280;4004;42.624;23.386;2023-04-12T01:33:23;93188.13;;;8.50;93.07
7918;BME280;4004;42.624;23.386;2023-04-12T01:35:57;93183.50;;;8.47;93.28
7918;BME280;4004;42.624;23.386;2023-04-12T01:38:24;93178.19;;;8.51;92.82
7918;BME280;4004;42.624;23.386;2023-04-12T01:40:51;93176.25;;;8.48;92.89
7918;BME280;4004;42.624;23.386;2023-04-12T01:43:18;93185.13;;;8.56;92.77
7918;BME280;4004;42.624;23.386;2023-04-12T01:45:46;93180.50;;;8.53;92.84
7918;BME280;4004;42.624;23.386;2023-04-12T01:48:12;93180.22;;;8.61;92.67
7918;BME280;4004;42.624;23.386;2023-04-12T01:50:47;93183.31;;;8.63;92.29
7918;BME280;4004;42.624;23.386;2023-04-12T01:53:18;93176.31;;;8.55;92.24
7918;BME280;4004;42.624;23.386;2023-04-12T01:55:47;93179.06;;;8.59;92.48
7918;BME280;4004;42.624;23.386;2023-04-12T01:58:19;93180.97;;;8.58;92.45
7918;BME280;4004;42.624;23.386;2023-04-12T02:00:49;93178.59;;;8.53;93.07
7918;BME280;4004;42.624;23.386;2023-04-12T02:03:17;93166.66;;;8.47;93.73
7918;BME280;4004;42.624;23.386;2023-04-12T02:05:46;93173.16;;;8.46;94.04
7918;BME280;4004;42.624;23.386;2023-04-12T02:08:13;93171.22;;;8.43;94.30
7918;BME280;4004;42.624;23.386;2023-04-12T02:10:39;93164.69;;;8.44;94.44
7918;BME280;4004;42.624;23.386;2023-04-12T02:13:06;93165.06;;;8.42;94.34
7918;BME280;4004;42.624;23.386;2023-04-12T02:15:33;93168.13;;;8.41;94.30
7918;BME280;4004;42.624;23.386;2023-04-12T02:18:02;93166.53;;;8.40;94.22
7918;BME280;4004;42.624;23.386;2023-04-12T02:20:29;93162.03;;;8.44;93.78
7918;BME280;4004;42.624;23.386;2023-04-12T02:22:56;93155.06;;;8.39;93.71
7918;BME280;4004;42.624;23.386;2023-04-12T02:25:24;93151.97;;;8.37;94.06
7918;BME280;4004;42.624;23.386;2023-04-12T02:27:51;93161.88;;;8.33;94.42
7918;BME280;4004;42.624;23.386;2023-04-12T02:30:18;93156.84;;;8.28;94.58
7918;BME280;4004;42.624;23.386;2023-04-12T02:32:46;93159.56;;;8.32;95.14
7918;BME280;4004;42.624;23.386;2023-04-12T02:35:15;93152.31;;;8.36;94.68
7918;BME280;4004;42.624;23.386;2023-04-12T02:37:43;93158.50;;;8.40;94.66
7918;BME280;4004;42.624;23.386;2023-04-12T02:40:11;93162.19;;;8.28;95.39
7918;BME280;4004;42.624;23.386;2023-04-12T02:42:39;93161.09;;;8.33;95.91
7918;BME280;4004;42.624;23.386;2023-04-12T02:45:07;93155.78;;;8.36;96.11
7918;BME280;4004;42.624;23.386;2023-04-12T02:47:34;93151.16;;;8.33;96.04
7918;BME280;4004;42.624;23.386;2023-04-12T02:50:01;93160.34;;;8.32;96.08
7918;BME280;4004;42.624;23.386;2023-04-12T02:52:29;93146.44;;;8.23;96.50
7918;BME280;4004;42.624;23.386;2023-04-12T02:54:57;93142.28;;;8.25;96.46
7918;BME280;4004;42.624;23.386;2023-04-12T02:57:24;93157.94;;;8.23;96.21
7918;BME280;4004;42.624;23.386;2023-04-12T02:59:51;93163.69;;;8.25;96.34
7918;BME280;4004;42.624;23.386;2023-04-12T03:02:18;93155.66;;;8.25;96.19
7918;BME280;4004;42.624;23.386;2023-04-12T03:04:45;93157.09;;;8.19;96.43
7918;BME280;4004;42.624;23.386;2023-04-12T03:07:15;93149.84;;;8.20;96.16
7918;BME280;4004;42.624;23.386;2023-04-12T03:09:44;93155.66;;;8.25;96.36
7918;BME280;4004;42.624;23.386;2023-04-12T03:12:10;93158.63;;;8.20;96.18
7918;BME280;4004;42.624;23.386;2023-04-12T03:14:37;93156.06;;;8.27;95.88
7918;BME280;4004;42.624;23.386;2023-04-12T03:17:04;93162.50;;;8.23;96.18
7918;BME280;4004;42.624;23.386;2023-04-12T03:19:30;93158.78;;;8.31;96.29
7918;BME280;4004;42.624;23.386;2023-04-12T03:21:59;93159.94;;;8.34;96.80
7918;BME280;4004;42.624;23.386;2023-04-12T03:24:26;93155.41;;;8.38;97.61
7918;BME280;4004;42.624;23.386;2023-04-12T03:26:54;93164.69;;;8.44;98.04
7918;BME280;4004;42.624;23.386;2023-04-12T03:29:22;93158.47;;;8.36;98.79
7918;BME280;4004;42.624;23.386;2023-04-12T03:31:49;93165.72;;;8.36;99.68
7918;BME280;4004;42.624;23.386;2023-04-12T03:34:15;93167.28;;;8.37;99.94
7918;BME280;4004;42.624;23.386;2023-04-12T03:36:42;93155.53;;;8.45;100.00
7918;BME280;4004;42.624;23.386;2023-04-12T03:39:09;93167.38;;;8.44;100.00
7918;BME280;4004;42.624;23.386;2023-04-12T03:41:36;93171.63;;;8.45;100.00
7918;BME280;4004;42.624;23.386;2023-04-12T03:44:04;93173.72;;;8.62;100.00
7918;BME280;4004;42.624;23.386;2023-04-12T03:46:32;93179.94;;;8.70;100.00
7918;BME280;4004;42.624;23.386;2023-04-12T03:48:58;93186.53;;;8.76;100.00
7918;BME280;4004;42.624;23.386;2023-04-12T03:51:25;93160.69;;;8.61;99.35
7918;BME280;4004;42.624;23.386;2023-04-12T03:53:55;93162.28;;;8.65;99.30
7918;BME280;4004;42.624;23.386;2023-04-12T03:56:22;93178.03;;;8.70;98.17
7918;BME280;4004;42.624;23.386;2023-04-12T03:58:48;93175.34;;;8.70;98.07
7918;BME280;4004;42.624;23.386;2023-04-12T04:01:16;93176.84;;;8.68;97.97
7918;BME280;4004;42.624;23.386;2023-04-12T04:03:43;93137.84;;;8.70;97.06
7918;BME280;4004;42.624;23.386;2023-04-12T04:06:10;93168.47;;;8.69;96.60
7918;BME280;4004;42.624;23.386;2023-04-12T04:08:37;93182.28;;;8.75;95.78
7918;BME280;4004;42.624;23.386;2023-04-12T04:11:04;93180.75;;;8.74;95.45
7918;BME280;4004;42.624;23.386;2023-04-12T04:13:31;93167.34;;;8.74;96.04
7918;BME280;4004;42.624;23.386;2023-04-12T04:16:01;93175.41;;;8.78;95.55
7918;BME280;4004;42.624;23.386;2023-04-12T04:18:30;93170.47;;;8.80;94.53
7918;BME280;4004;42.624;23.386;2023-04-12T04:20:57;93173.22;;;8.87;93.27
7918;BME280;4004;42.624;23.386;2023-04-12T04:23:24;93183.22;;;8.90;92.66
7918;BME280;4004;42.624;23.386;2023-04-12T04:25:53;93185.91;;;8.90;92.87
7918;BME280;4004;42.624;23.386;2023-04-12T04:28:20;93195.16;;;8.96;92.88
7918;BME280;4004;42.624;23.386;2023-04-12T04:30:48;93216.22;;;8.98;92.53
7918;BME280;4004;42.624;23.386;2023-04-12T04:33:16;93215.41;;;8.93;92.41
7918;BME280;4004;42.624;23.386;2023-04-12T04:35:45;93223.75;;;8.85;92.47
7918;BME280;4004;42.624;23.386;2023-04-12T04:38:11;93225.69;;;8.88;92.42
7918;BME280;4004;42.624;23.386;2023-04-12T04:40:40;93214.63;;;8.93;92.38
7918;BME280;4004;42.624;23.386;2023-04-12T04:43:06;93231.81;;;8.85;92.75
7918;BME280;4004;42.624;23.386;2023-04-12T04:45:34;93226.88;;;8.90;91.97
7918;BME280;4004;42.624;23.386;2023-04-12T04:48:00;93233.88;;;9.02;91.12
7918;BME280;4004;42.624;23.386;2023-04-12T04:50:27;93206.31;;;9.02;90.88
7918;BME280;4004;42.624;23.386;2023-04-12T04:52:56;93233.41;;;8.93;90.38
7918;BME280;4004;42.624;23.386;2023-04-12T04:55:22;93226.09;;;8.90;90.12
7918;BME280;4004;42.624;23.386;2023-04-12T04:57:50;93237.66;;;8.98;89.14
7918;BME280;4004;42.624;23.386;2023-04-12T05:00:17;93240.75;;;9.00;88.21
7918;BME280;4004;42.624;23.386;2023-04-12T05:02:44;93249.31;;;9.12;87.50
7918;BME280;4004;42.624;23.386;2023-04-12T05:05:11;93239.69;;;9.08;86.90
7918;BME280;4004;42.624;23.386;2023-04-12T05:07:38;93253.06;;;9.04;86.10
7918;BME280;4004;42.624;23.386;2023-04-12T05:10:08;93241.53;;;9.00;85.40
7918;BME280;4004;42.624;23.386;2023-04-12T05:12:35;93254.91;;;8.97;85.24
7918;BME280;4004;42.624;23.386;2023-04-12T05:15:02;93247.25;;;8.99;84.48
7918;BME280;4004;42.624;23.386;2023-04-12T05:17:29;93259.66;;;9.10;83.63
7918;BME280;4004;42.624;23.386;2023-04-12T05:19:56;93263.38;;;9.02;83.15
7918;BME280;4004;42.624;23.386;2023-04-12T05:22:22;93252.69;;;9.06;83.99
7918;BME280;4004;42.624;23.386;2023-04-12T05:24:49;93268.88;;;9.13;83.64
7918;BME280;4004;42.624;23.386;2023-04-12T05:27:17;93276.97;;;9.17;84.17
7918;BME280;4004;42.624;23.386;2023-04-12T05:29:44;93270.84;;;9.16;82.95
7918;BME280;4004;42.624;23.386;2023-04-12T05:32:11;93263.22;;;9.22;82.02
7918;BME280;4004;42.624;23.386;2023-04-12T05:34:38;93256.78;;;9.30;79.49
7918;BME280;4004;42.624;23.386;2023-04-12T05:37:04;93261.75;;;9.28;77.84
7918;BME280;4004;42.624;23.386;2023-04-12T05:39:32;93252.19;;;9.30;76.04
7918;BME280;4004;42.624;23.386;2023-04-12T05:41:59;93264.38;;;9.21;76.02
7918;BME280;4004;42.624;23.386;2023-04-12T05:44:27;93255.56;;;9.24;75.53
7918;BME280;4004;42.624;23.386;2023-04-12T05:46:54;93262.09;;;9.23;74.36
7918;BME280;4004;42.624;23.386;2023-04-12T05:49:20;93254.75;;;9.16;74.32
7918;BME280;4004;42.624;23.386;2023-04-12T05:51:47;93255.50;;;9.17;73.70
7918;BME280;4004;42.624;23.386;2023-04-12T05:54:14;93258.91;;;9.13;73.56
7918;BME280;4004;42.624;23.386;2023-04-12T05:56:45;93254.03;;;9.23;72.86
7918;BME280;4004;42.624;23.386;2023-04-12T05:59:12;93248.69;;;9.26;70.99
7918;BME280;4004;42.624;23.386;2023-04-12T06:01:40;93269.06;;;9.31;71.04
7918;BME280;4004;42.624;23.386;2023-04-12T06:04:08;93245.66;;;9.28;70.95
7918;BME280;4004;42.624;23.386;2023-04-12T06:06:35;93289.78;;;9.34;70.62
7918;BME280;4004;42.624;23.386;2023-04-12T06:09:02;93288.66;;;9.35;69.63
7918;BME280;4004;42.624;23.386;2023-04-12T06:11:31;93280.94;;;9.30;68.24
7918;BME280;4004;42.624;23.386;2023-04-12T06:13:58;93285.78;;;9.17;68.96
7918;BME280;4004;42.624;23.386;2023-04-12T06:16:25;93277.66;;;9.13;69.01
7918;BME280;4004;42.624;23.386;2023-04-12T06:18:54;93287.16;;;9.04;69.64
7918;BME280;4004;42.624;23.386;2023-04-12T06:21:21;93299.81;;;9.07;69.94
7918;BME280;4004;42.624;23.386;2023-04-12T06:23:48;93305.16;;;9.03;70.18
7918;BME280;4004;42.624;23.386;2023-04-12T06:26:14;93303.50;;;8.95;70.97
7918;BME280;4004;42.624;23.386;2023-04-12T06:28:41;93306.16;;;8.91;71.87
7918;BME280;4004;42.624;23.386;2023-04-12T06:31:08;93305.84;;;9.00;76.16
7918;BME280;4004;42.624;23.386;2023-04-12T06:33:35;93311.47;;;8.88;75.17
7918;BME280;4004;42.624;23.386;2023-04-12T06:36:04;93315.69;;;8.89;76.79
7918;BME280;4004;42.624;23.386;2023-04-12T06:38:31;93294.44;;;9.03;77.56
7918;BME280;4004;42.624;23.386;2023-04-12T06:40:58;93309.69;;;8.99;77.11
7918;BME280;4004;42.624;23.386;2023-04-12T06:43:24;93301.06;;;8.83;78.57
7918;BME280;4004;42.624;23.386;2023-04-12T06:45:51;93295.78;;;8.90;77.72
7918;BME280;4004;42.624;23.386;2023-04-12T06:48:18;93303.78;;;8.86;76.75
7918;BME280;4004;42.624;23.386;2023-04-12T06:50:45;93303.84;;;8.90;77.31
7918;BME280;4004;42.624;23.386;2023-04-12T06:53:13;93300.13;;;9.02;77.09
7918;BME280;4004;42.624;23.386;2023-04-12T06:55:40;93299.59;;;9.19;78.24
7918;BME280;4004;42.624;23.386;2023-04-12T06:58:07;93304.59;;;9.21;74.38
7918;BME280;4004;42.624;23.386;2023-04-12T07:00:34;93295.94;;;9.38;74.27
7918;BME280;4004;42.624;23.386;2023-04-12T07:03:02;93301.06;;;9.50;73.26
7918;BME280;4004;42.624;23.386;2023-04-12T07:05:28;93292.78;;;9.66;74.72
7918;BME280;4004;42.624;23.386;2023-04-12T07:07:55;93289.41;;;9.73;70.63
7918;BME280;4004;42.624;23.386;2023-04-12T07:10:23;93289.03;;;9.74;69.44
7918;BME280;4004;42.624;23.386;2023-04-12T07:12:50;93299.94;;;9.92;68.84
7918;BME280;4004;42.624;23.386;2023-04-12T07:15:17;93285.56;;;10.19;67.66
7918;BME280;4004;42.624;23.386;2023-04-12T07:17:44;93288.88;;;10.53;66.02
7918;BME280;4004;42.624;23.386;2023-04-12T07:20:11;93286.34;;;10.78;63.81
7918;BME280;4004;42.624;23.386;2023-04-12T07:22:38;93280.78;;;11.26;61.55
7918;BME280;4004;42.624;23.386;2023-04-12T07:25:05;93262.38;;;11.39;59.08
7918;BME280;4004;42.624;23.386;2023-04-12T07:27:35;93271.25;;;11.54;59.03
7918;BME280;4004;42.624;23.386;2023-04-12T07:30:03;93268.94;;;11.45;58.39
7918;BME280;4004;42.624;23.386;2023-04-12T07:32:30;93280.13;;;11.65;58.44
7918;BME280;4004;42.624;23.386;2023-04-12T07:34:56;93270.56;;;11.96;57.77
7918;BME280;4004;42.624;23.386;2023-04-12T07:37:23;93272.47;;;12.07;57.19
7918;BME280;4004;42.624;23.386;2023-04-12T07:39:50;93274.00;;;12.00;56.67
7918;BME280;4004;42.624;23.386;2023-04-12T07:42:17;93269.41;;;12.01;55.51
7918;BME280;4004;42.624;23.386;2023-04-12T07:44:45;93271.72;;;12.17;55.45
7918;BME280;4004;42.624;23.386;2023-04-12T07:47:12;93252.47;;;12.33;55.23
7918;BME280;4004;42.624;23.386;2023-04-12T07:49:38;93284.41;;;12.45;54.35
7918;BME280;4004;42.624;23.386;2023-04-12T07:52:05;93290.50;;;12.81;52.92
7918;BME280;4004;42.624;23.386;2023-04-12T07:54:32;93282.06;;;12.61;52.82
7918;BME280;4004;42.624;23.386;2023-04-12T07:57:00;93280.56;;;12.35;53.48
7918;BME280;4004;42.624;23.386;2023-04-12T07:59:27;93273.28;;;12.25;53.55
7918;BME280;4004;42.624;23.386;2023-04-12T08:01:56;93156.66;;;11.74;53.26
7918;BME280;4004;42.624;23.386;2023-04-12T08:04:22;93258.97;;;12.53;52.68
7918;BME280;4004;42.624;23.386;2023-04-12T08:06:49;93276.69;;;12.54;52.94
7918;BME280;4004;42.624;23.386;2023-04-12T08:09:17;93278.56;;;12.90;51.44
7918;BME280;4004;42.624;23.386;2023-04-12T08:11:44;93256.13;;;13.07;49.19
7918;BME280;4004;42.624;23.386;2023-04-12T08:14:11;93269.34;;;12.69;49.07
7918;BME280;4004;42.624;23.386;2023-04-12T08:16:38;93269.34;;;12.76;49.16
7918;BME280;4004;42.624;23.386;2023-04-12T08:19:06;93264.69;;;12.88;49.16
7918;BME280;4004;42.624;23.386;2023-04-12T08:21:33;93267.31;;;13.02;48.95
7918;BME280;4004;42.624;23.386;2023-04-12T08:24:00;93263.56;;;12.67;48.74
7918;BME280;4004;42.624;23.386;2023-04-12T08:26:26;93272.47;;;12.14;47.37
7918;BME280;4004;42.624;23.386;2023-04-12T08:28:54;93254.78;;;11.91;47.69
7918;BME280;4004;42.624;23.386;2023-04-12T08:31:22;93259.00;;;11.85;46.97
7918;BME280;4004;42.624;23.386;2023-04-12T08:33:49;93258.22;;;11.74;45.79
7918;BME280;4004;42.624;23.386;2023-04-12T08:36:17;93264.03;;;11.90;45.71
7918;BME280;4004;42.624;23.386;2023-04-12T08:38:44;93257.09;;;12.11;45.41
7918;BME280;4004;42.624;23.386;2023-04-12T08:41:11;93264.00;;;12.37;45.13
7918;BME280;4004;42.624;23.386;2023-04-12T08:43:42;93263.97;;;12.58;44.71
7918;BME280;4004;42.624;23.386;2023-04-12T08:46:09;93235.38;;;12.86;44.70
7918;BME280;4004;42.624;23.386;2023-04-12T08:48:39;93260.34;;;13.12;44.42
7918;BME280;4004;42.624;23.386;2023-04-12T08:51:08;93250.28;;;13.19;43.80
7918;BME280;4004;42.624;23.386;2023-04-12T08:53:38;93264.53;;;13.31;42.86
7918;BME280;4004;42.624;23.386;2023-04-12T08:56:06;93249.88;;;13.32;42.17
7918;BME280;4004;42.624;23.386;2023-04-12T08:58:37;93226.03;;;13.09;42.61
7918;BME280;4004;42.624;23.386;2023-04-12T09:01:09;93248.47;;;12.98;43.07
7918;BME280;4004;42.624;23.386;2023-04-12T09:03:37;93251.53;;;12.97;43.79
7918;BME280;4004;42.624;23.386;2023-04-12T09:06:05;93253.06;;;12.98;43.99
7918;BME280;4004;42.624;23.386;2023-04-12T09:08:32;93208.84;;;12.74;43.85
7918;BME280;4004;42.624;23.386;2023-04-12T09:11:00;93243.16;;;12.62;44.84
7918;BME280;4004;42.624;23.386;2023-04-12T09:13:31;93230.50;;;12.45;45.46
7918;BME280;4004;42.624;23.386;2023-04-12T09:15:59;93232.44;;;12.30;46.02
7918;BME280;4004;42.624;23.386;2023-04-12T09:18:25;93227.81;;;12.41;45.79
7918;BME280;4004;42.624;23.386;2023-04-12T09:21:05;93232.38;;;12.70;44.75
7918;BME280;4004;42.624;23.386;2023-04-12T09:23:32;93228.09;;;12.76;44.34
7918;BME280;4004;42.624;23.386;2023-04-12T09:26:02;93223.41;;;12.94;43.39
7918;BME280;4004;42.624;23.386;2023-04-12T09:28:29;93236.13;;;12.94;44.26
7918;BME280;4004;42.624;23.386;2023-04-12T09:30:57;93236.13;;;13.01;43.67
7918;BME280;4004;42.624;23.386;2023-04-12T09:33:32;93220.31;;;12.96;43.14
7918;BME280;4004;42.624;23.386;2023-04-12T09:36:00;93213.09;;;12.78;41.70
7918;BME280;4004;42.624;23.386;2023-04-12T09:38:27;93225.38;;;12.86;41.57
7918;BME280;4004;42.624;23.386;2023-04-12T09:40:54;93214.63;;;12.72;40.94
7918;BME280;4004;42.624;23.386;2023-04-12T09:43:37;93188.34;;;12.91;40.91
7918;BME280;4004;42.624;23.386;2023-04-12T09:46:09;93202.59;;;12.91;40.33
7918;BME280;4004;42.624;23.386;2023-04-12T09:48:38;93207.19;;;12.98;40.12
7918;BME280;4004;42.624;23.386;2023-04-12T09:51:05;93182.44;;;13.14;40.09
7918;BME280;4004;42.624;23.386;2023-04-12T09:53:33;93212.88;;;13.21;39.83
7918;BME280;4004;42.624;23.386;2023-04-12T09:56:02;93164.47;;;12.93;40.36
7918;BME280;4004;42.624;23.386;2023-04-12T09:58:30;93198.19;;;13.37;40.37
7918;BME280;4004;42.624;23.386;2023-04-12T10:01:01;93192.31;;;13.49;40.35
7918;BME280;4004;42.624;23.386;2023-04-12T10:03:28;93178.41;;;13.54;39.82
7918;BME280;4004;42.624;23.386;2023-04-12T10:05:55;93174.06;;;13.67;40.38
7918;BME280;4004;42.624;23.386;2023-04-12T10:08:22;93168.69;;;13.60;39.79
7918;BME280;4004;42.624;23.386;2023-04-12T10:10:50;93165.63;;;13.58;39.86
7918;BME280;4004;42.624;23.386;2023-04-12T10:13:17;93180.31;;;13.54;40.20
7918;BME280;4004;42.624;23.386;2023-04-12T10:15:45;93149.53;;;13.44;38.09
7918;BME280;4004;42.624;23.386;2023-04-12T10:18:17;93164.28;;;13.25;35.90
7918;BME280;4004;42.624;23.386;2023-04-12T10:20:45;93165.88;;;13.19;34.79
7918;BME280;4004;42.624;23.386;2023-04-12T10:23:12;93162.84;;;13.02;33.82
7918;BME280;4004;42.624;23.386;2023-04-12T10:25:39;93145.94;;;12.95;33.79
7918;BME280;4004;42.624;23.386;2023-04-12T10:28:13;93145.28;;;12.73;33.51
7918;BME280;4004;42.624;23.386;2023-04-12T10:30:41;93156.88;;;12.70;33.94
7918;BME280;4004;42.624;23.386;2023-04-12T10:33:17;93143.75;;;12.72;33.87
7918;BME280;4004;42.624;23.386;2023-04-12T10:35:55;93143.69;;;12.82;34.54
7918;BME280;4004;42.624;23.386;2023-04-12T10:38:23;93143.63;;;12.97;34.68
7918;BME280;4004;42.624;23.386;2023-04-12T10:41:11;93152.50;;;12.94;35.54
7918;BME280;4004;42.624;23.386;2023-04-12T10:43:39;93147.47;;;13.03;35.71
7918;BME280;4004;42.624;23.386;2023-04-12T10:46:06;93138.19;;;13.04;35.21
7918;BME280;4004;42.624;23.386;2023-04-12T10:48:35;93140.56;;;12.98;35.08
7918;BME280;4004;42.624;23.386;2023-04-12T10:51:13;93128.22;;;12.94;33.52
7918;BME280;4004;42.624;23.386;2023-04-12T10:53:42;93120.53;;;12.92;33.92
7918;BME280;4004;42.624;23.386;2023-04-12T10:56:34;93126.38;;;12.80;33.62
7918;BME280;4004;42.624;23.386;2023-04-12T10:59:02;93118.31;;;12.76;34.58
7918;BME280;4004;42.624;23.386;2023-04-12T11:01:29;93110.28;;;12.65;31.89
7918;BME280;4004;42.624;23.386;2023-04-12T11:04:11;93073.75;;;12.50;30.64
7918;BME280;4004;42.624;23.386;2023-04-12T11:06:46;93087.47;;;12.74;31.44
7918;BME280;4004;42.624;23.386;2023-04-12T11:09:20;93120.97;;;12.80;32.75
7918;BME280;4004;42.624;23.386;2023-04-12T11:11:47;93119.03;;;12.80;33.23
7918;BME280;4004;42.624;23.386;2023-04-12T11:14:14;93127.88;;;12.92;34.02
7918;BME280;4004;42.624;23.386;2023-04-12T11:17:18;93105.88;;;12.93;31.44
7918;BME280;4004;42.624;23.386;2023-04-12T11:19:52;93125.97;;;12.85;31.25
7918;BME280;4004;42.624;23.386;2023-04-12T11:22:21;93125.97;;;12.81;30.63
7918;BME280;4004;42.624;23.386;2023-04-12T11:24:50;93110.56;;;12.82;30.04
7918;BME280;4004;42.624;23.386;2023-04-12T11:27:18;93116.31;;;12.88;30.79
7918;BME280;4004;42.624;23.386;2023-04-12T11:29:47;93115.09;;;12.96;31.25
7918;BME280;4004;42.624;23.386;2023-04-12T11:32:15;93096.31;;;12.81;31.46
7918;BME280;4004;42.624;23.386;2023-04-12T11:34:44;93113.56;;;12.98;31.71
7918;BME280;4004;42.624;23.386;2023-04-12T11:37:12;93116.31;;;12.88;31.16
7918;BME280;4004;42.624;23.386;2023-04-12T11:39:40;93098.97;;;12.89;31.09
7918;BME280;4004;42.624;23.386;2023-04-12T11:42:11;93092.06;;;12.88;31.11
7918;BME280;4004;42.624;23.386;2023-04-12T11:44:40;93075.53;;;12.78;31.46
7918;BME280;4004;42.624;23.386;2023-04-12T11:47:12;93099.44;;;12.76;31.78
7918;BME280;4004;42.624;23.386;2023-04-12T11:49:45;93113.63;;;12.88;31.61
7918;BME280;4004;42.624;23.386;2023-04-12T11:52:15;93104.34;;;12.92;31.32
7918;BME280;4004;42.624;23.386;2023-04-12T11:54:43;93101.22;;;13.01;30.68
7918;BME280;4004;42.624;23.386;2023-04-12T11:57:12;93106.63;;;12.97;30.44
7918;BME280;4004;42.624;23.386;2023-04-12T11:59:42;93097.41;;;12.91;31.24
7918;BME280;4004;42.624;23.386;2023-04-12T12:02:09;93121.72;;;12.88;31.15
7918;BME280;4004;42.624;23.386;2023-04-12T12:04:36;93110.56;;;12.85;30.84
7918;BME280;4004;42.624;23.386;2023-04-12T12:07:03;93110.91;;;12.91;31.06
7918;BME280;4004;42.624;23.386;2023-04-12T12:09:32;93097.44;;;12.88;31.28
7918;BME280;4004;42.624;23.386;2023-04-12T12:12:00;93103.22;;;12.86;31.56
7918;BME280;4004;42.624;23.386;2023-04-12T12:14:26;93083.97;;;12.88;32.01
7918;BME280;4004;42.624;23.386;2023-04-12T12:16:55;93093.94;;;12.91;31.65
7918;BME280;4004;42.624;23.386;2023-04-12T12:19:33;93092.81;;;12.84;32.16
7918;BME280;4004;42.624;23.386;2023-04-12T12:22:15;93107.53;;;12.76;32.47
7918;BME280;4004;42.624;23.386;2023-04-12T12:24:50;93088.22;;;12.81;32.18
7918;BME280;4004;42.624;23.386;2023-04-12T12:27:21;93080.53;;;12.80;32.27
7918;BME280;4004;42.624;23.386;2023-04-12T12:29:49;93086.63;;;12.91;32.22
7918;BME280;4004;42.624;23.386;2023-04-12T12:32:18;93087.31;;;13.06;32.09
7918;BME280;4004;42.624;23.386;2023-04-12T12:34:54;93111.16;;;13.15;32.30
7918;BME280;4004;42.624;23.386;2023-04-12T12:37:23;93101.50;;;13.17;32.46
7918;BME280;4004;42.624;23.386;2023-04-12T12:40:05;93096.84;;;13.18;32.37
7918;BME280;4004;42.624;23.386;2023-04-12T12:42:36;93124.94;;;13.27;32.30
7918;BME280;4004;42.624;23.386;2023-04-12T12:45:04;93115.41;;;13.12;30.90
7918;BME280;4004;42.624;23.386;2023-04-12T12:47:31;93132.81;;;13.00;31.52
7918;BME280;4004;42.624;23.386;2023-04-12T12:49:58;93121.66;;;12.98;32.49
7918;BME280;4004;42.624;23.386;2023-04-12T12:52:25;93113.97;;;12.93;32.94
7918;BME280;4004;42.624;23.386;2023-04-12T12:54:52;93114.78;;;12.86;32.99
7918;BME280;4004;42.624;23.386;2023-04-12T12:57:20;93127.06;;;12.95;33.07
7918;BME280;4004;42.624;23.386;2023-04-12T12:59:46;93111.69;;;12.84;31.64
7918;BME280;4004;42.624;23.386;2023-04-12T13:02:13;93095.13;;;12.86;32.11
7918;BME280;4004;42.624;23.386;2023-04-12T13:04:42;93122.09;;;12.86;31.41
7918;BME280;4004;42.624;23.386;2023-04-12T13:07:09;93109.81;;;12.81;31.19
7918;BME280;4004;42.624;23.386;2023-04-12T13:09:35;93090.91;;;12.85;31.91
7918;BME280;4004;42.624;23.386;2023-04-12T13:12:02;93117.88;;;12.81;32.01
7918;BME280;4004;42.624;23.386;2023-04-12T13:14:30;93114.81;;;12.79;32.18
7918;BME280;4004;42.624;23.386;2023-04-12T13:16:57;93106.78;;;12.72;32.66
7918;BME280;4004;42.624;23.386;2023-04-12T13:19:24;93107.91;;;12.78;32.71
7918;BME280;4004;42.624;23.386;2023-04-12T13:21:50;93084.16;;;12.44;32.62
7918;BME280;4004;42.624;23.386;2023-04-12T13:24:17;93126.78;;;12.75;32.32